Time;durP1;ratioP1;P1;durP2;ratioP2;P2;SDS_P1;SDS_P2;PMS_P1;PMS_P2;Temp;Humidity;BMP_temperature;BMP_pressure;BME280_temperature;BME280_humidity;BME280_pressure;Samples;Min_cycle;Max_cycle;Signal;HPM_P1;HPM_P2
2019/10/27 00:02:13;;;;;;;7.7;5.4;;;;;;;;;;;;;
2019/10/27 00:04:38;;;;;;;8.1;5.3;;;;;;;;;;;;;
2019/10/27 00:07:03;;;;;;;7.2;5.5;;;;;;;;;;;;;
2019/10/27 00:09:28;;;;;;;7.2;5.3;;;;;;;;;;;;;
2019/10/27 00:11:53;;;;;;;7.2;5.6;;;;;;;;;;;;;
2019/10/27 00:14:18;;;;;;;7.1;5.5;;;;;;;;;;;;;
2019/10/27 00:16:43;;;;;;;7.8;5.5;;;;;;;;;;;;;
2019/10/27 00:19:08;;;;;;;8.8;5.9;;;;;;;;;;;;;
2019/10/27 00:21:33;;;;;;;6.5;5.6;;;;;;;;;;;;;
2019/10/27 00:23:58;;;;;;;8.5;6.1;;;;;;;;;;;;;
2019/10/27 00:26:24;;;;;;;7.9;5.7;;;;;;;;;;;;;
2019/10/27 00:28:49;;;;;;;6.9;5.7;;;;;;;;;;;;;
2019/10/27 00:31:14;;;;;;;8.5;5.8;;;;;;;;;;;;;
2019/10/27 00:33:44;;;;;;;8.5;6.1;;;;;;;;;;;;;
2019/10/27 00:36:04;;;;;;;6.9;5.9;;;;;;;;;;;;;
2019/10/27 00:38:29;;;;;;;6.7;6;;;;;;;;;;;;;
2019/10/27 00:40:54;;;;;;;8.5;6.1;;;;;;;;;;;;;
2019/10/27 00:43:19;;;;;;;6.5;5.6;;;;;;;;;;;;;
2019/10/27 00:45:44;;;;;;;8.9;6.2;;;;;;;;;;;;;
2019/10/27 00:48:09;;;;;;;7.1;6.1;;;;;;;;;;;;;
2019/10/27 00:50:34;;;;;;;8.2;6;;;;;;;;;;;;;
2019/10/27 00:53:00;;;;;;;8.4;6.3;;;;;;;;;;;;;
2019/10/27 00:55:25;;;;;;;7.1;6.1;;;;;;;;;;;;;
2019/10/27 00:57:50;;;;;;;7.4;6.1;;;;;;;;;;;;;
2019/10/27 01:00:15;;;;;;;7.5;6.1;;;;;;;;;;;;;
2019/10/27 01:02:40;;;;;;;8.8;6.1;;;;;;;;;;;;;
2019/10/27 01:05:05;;;;;;;10;6.1;;;;;;;;;;;;;
2019/10/27 01:07:31;;;;;;;8.6;6.4;;;;;;;;;;;;;
2019/10/27 01:09:56;;;;;;;8.6;6.1;;;;;;;;;;;;;
2019/10/27 01:12:21;;;;;;;8.6;6;;;;;;;;;;;;;
2019/10/27 01:14:46;;;;;;;9.2;5.5;;;;;;;;;;;;;
2019/10/27 01:17:11;;;;;;;8;5.7;;;;;;;;;;;;;
2019/10/27 01:19:37;;;;;;;11.6;6;;;;;;;;;;;;;
2019/10/27 01:22:01;;;;;;;7.9;5.6;;;;;;;;;;;;;
2019/10/27 01:24:27;;;;;;;9.3;5.3;;;;;;;;;;;;;
2019/10/27 01:26:52;;;;;;;6.9;5.5;;;;;;;;;;;;;
2019/10/27 01:29:17;;;;;;;7.9;5.6;;;;;;;;;;;;;
2019/10/27 01:31:42;;;;;;;6.8;5.3;;;;;;;;;;;;;
2019/10/27 01:34:07;;;;;;;7.2;5.3;;;;;;;;;;;;;
2019/10/27 01:36:32;;;;;;;5.9;4.9;;;;;;;;;;;;;
2019/10/27 01:38:57;;;;;;;7.3;4.8;;;;;;;;;;;;;
2019/10/27 01:41:22;;;;;;;7.3;4.7;;;;;;;;;;;;;
2019/10/27 01:43:47;;;;;;;6.4;4.9;;;;;;;;;;;;;
2019/10/27 01:46:12;;;;;;;6;4.9;;;;;;;;;;;;;
2019/10/27 01:48:37;;;;;;;7.1;5;;;;;;;;;;;;;
2019/10/27 01:51:02;;;;;;;8.1;5.3;;;;;;;;;;;;;
2019/10/27 01:53:28;;;;;;;6.4;5.1;;;;;;;;;;;;;
2019/10/27 01:55:53;;;;;;;6.3;4.8;;;;;;;;;;;;;
2019/10/27 01:58:18;;;;;;;6.7;5.1;;;;;;;;;;;;;
2019/10/27 02:00:43;;;;;;;7.2;5.1;;;;;;;;;;;;;
2019/10/27 02:03:08;;;;;;;7.9;5.4;;;;;;;;;;;;;
2019/10/27 02:05:33;;;;;;;6.4;5;;;;;;;;;;;;;
2019/10/27 02:07:58;;;;;;;7.8;5.4;;;;;;;;;;;;;
2019/10/27 02:10:24;;;;;;;7.1;5.3;;;;;;;;;;;;;
2019/10/27 02:12:49;;;;;;;7.6;5;;;;;;;;;;;;;
2019/10/27 02:15:14;;;;;;;8.8;5.1;;;;;;;;;;;;;
2019/10/27 02:17:39;;;;;;;7.4;5.1;;;;;;;;;;;;;
2019/10/27 02:20:04;;;;;;;7.9;5;;;;;;;;;;;;;
2019/10/27 02:22:29;;;;;;;8.5;5.1;;;;;;;;;;;;;
2019/10/27 02:24:54;;;;;;;7.8;5.1;;;;;;;;;;;;;
2019/10/27 02:27:20;;;;;;;6.9;4.8;;;;;;;;;;;;;
2019/10/27 02:29:45;;;;;;;7.7;4.7;;;;;;;;;;;;;
2019/10/27 02:32:10;;;;;;;8.6;5;;;;;;;;;;;;;
2019/10/27 02:34:35;;;;;;;6.3;4.5;;;;;;;;;;;;;
2019/10/27 02:37:00;;;;;;;7.7;4.6;;;;;;;;;;;;;
2019/10/27 02:39:25;;;;;;;6.9;4.4;;;;;;;;;;;;;
2019/10/27 02:41:50;;;;;;;6.4;4.2;;;;;;;;;;;;;
2019/10/27 02:44:15;;;;;;;6.3;4.6;;;;;;;;;;;;;
2019/10/27 02:46:40;;;;;;;7;4.3;;;;;;;;;;;;;
2019/10/27 02:49:05;;;;;;;7;4.3;;;;;;;;;;;;;
2019/10/27 02:51:30;;;;;;;7.8;4.8;;;;;;;;;;;;;
2019/10/27 02:53:55;;;;;;;7.5;4.6;;;;;;;;;;;;;
2019/10/27 02:56:21;;;;;;;6.4;4.2;;;;;;;;;;;;;
2019/10/27 02:58:46;;;;;;;7;4.7;;;;;;;;;;;;;
2019/10/27 03:01:11;;;;;;;6;4.4;;;;;;;;;;;;;
2019/10/27 03:03:36;;;;;;;5.5;4.5;;;;;;;;;;;;;
2019/10/27 03:06:01;;;;;;;6.1;4.4;;;;;;;;;;;;;
2019/10/27 03:08:26;;;;;;;7;4.6;;;;;;;;;;;;;
2019/10/27 03:10:51;;;;;;;5.7;4.2;;;;;;;;;;;;;
2019/10/27 03:13:16;;;;;;;6.8;4.3;;;;;;;;;;;;;
2019/10/27 03:15:41;;;;;;;5.6;4.2;;;;;;;;;;;;;
2019/10/27 03:18:51;;;;;;;4.6;4.1;;;;;;;;;;;;;
2019/10/27 03:20:31;;;;;;;6.2;4.1;;;;;;;;;;;;;
2019/10/27 03:22:56;;;;;;;7.8;4.6;;;;;;;;;;;;;
2019/10/27 03:25:22;;;;;;;6;4.4;;;;;;;;;;;;;
2019/10/27 03:27:47;;;;;;;7.4;4.4;;;;;;;;;;;;;
2019/10/27 03:30:12;;;;;;;7.1;4.3;;;;;;;;;;;;;
2019/10/27 03:32:37;;;;;;;6;4.2;;;;;;;;;;;;;
2019/10/27 03:35:02;;;;;;;5.1;4.1;;;;;;;;;;;;;
2019/10/27 03:37:27;;;;;;;5;4.1;;;;;;;;;;;;;
2019/10/27 03:39:52;;;;;;;8.2;4.3;;;;;;;;;;;;;
2019/10/27 03:42:17;;;;;;;5.6;3.8;;;;;;;;;;;;;
2019/10/27 03:44:42;;;;;;;6.5;4.2;;;;;;;;;;;;;
2019/10/27 03:47:08;;;;;;;6.3;4.1;;;;;;;;;;;;;
2019/10/27 03:49:33;;;;;;;5.9;3.8;;;;;;;;;;;;;
2019/10/27 03:51:58;;;;;;;5.4;3.9;;;;;;;;;;;;;
2019/10/27 03:54:23;;;;;;;4.4;3.9;;;;;;;;;;;;;
2019/10/27 03:56:48;;;;;;;5.5;4;;;;;;;;;;;;;
2019/10/27 03:59:13;;;;;;;7.9;4.3;;;;;;;;;;;;;
2019/10/27 04:02:28;;;;;;;6.3;4.1;;;;;;;10.75;84.10938;963.563;;;;
2019/10/27 04:04:54;;;;;;;6.4;4;;;;;;;10.79;83.89844;963.533;;;;
2019/10/27 04:07:18;;;;;;;6.5;4.1;;;;;;;10.79;84.31348;963.475;;;;
2019/10/27 04:09:44;;;;;;;5.8;4.2;;;;;;;10.71;84.18457;963.5776;;;;
2019/10/27 04:12:09;;;;;;;7.5;4;;;;;;;10.76;83.46582;963.5289;;;;
2019/10/27 04:14:34;;;;;;;7.7;4.3;;;;;;;10.64;84.36426;963.5528;;;;
2019/10/27 04:16:59;;;;;;;6.6;4;;;;;;;10.78;83.62109;963.545;;;;
2019/10/27 04:19:24;;;;;;;6.7;4.1;;;;;;;10.76;83.62695;963.55;;;;
2019/10/27 04:21:49;;;;;;;5.8;4;;;;;;;10.68;83.625;963.5622;;;;
2019/10/27 04:24:14;;;;;;;6.4;4;;;;;;;10.8;83.26563;963.6132;;;;
2019/10/27 04:26:39;;;;;;;5.8;3.7;;;;;;;10.75;83.37207;963.5645;;;;
2019/10/27 04:29:04;;;;;;;6.2;3.8;;;;;;;10.69;83.52246;963.5469;;;;
2019/10/27 04:31:29;;;;;;;5.6;3.8;;;;;;;10.73;83.32227;963.5673;;;;
2019/10/27 04:33:55;;;;;;;6.9;4.2;;;;;;;10.67;84.10449;963.5341;;;;
2019/10/27 04:36:37;;;;;;;7.3;4.1;;;;;;;10.61;83.92188;963.53;;;;
2019/10/27 04:38:48;;;;;;;5.6;4;;;;;;;10.58;84.14453;963.5561;;;;
2019/10/27 04:41:32;;;;;;;5.4;4;;;;;;;10.58;84.62988;963.5;;;;
2019/10/27 04:43:57;;;;;;;7.8;4.2;;;;;;;10.58;84.35156;963.5016;;;;
2019/10/27 04:46:22;;;;;;;7.2;4.1;;;;;;;10.57;84.77637;963.5079;;;;
2019/10/27 04:48:47;;;;;;;5.9;3.9;;;;;;;10.59;84.03125;963.4523;;;;
2019/10/27 04:51:12;;;;;;;7.7;4.2;;;;;;;10.58;84.13477;963.4828;;;;
2019/10/27 04:53:37;;;;;;;6;4.1;;;;;;;10.55;84.61133;963.4486;;;;
2019/10/27 04:56:02;;;;;;;6.8;3.9;;;;;;;10.5;85.10742;963.45;;;;
2019/10/27 04:58:27;;;;;;;7.6;4.4;;;;;;;10.5;84.9248;963.4256;;;;
2019/10/27 05:00:52;;;;;;;6.5;4.1;;;;;;;10.51;84.75195;963.4216;;;;
2019/10/27 05:03:18;;;;;;;6.6;3.9;;;;;;;10.52;84.06543;963.3958;;;;
2019/10/27 05:05:43;;;;;;;5.7;4.1;;;;;;;10.46;84.93945;963.3641;;;;
2019/10/27 05:08:08;;;;;;;5.2;4;;;;;;;10.52;84.98438;963.39;;;;
2019/10/27 05:10:33;;;;;;;5.2;3.9;;;;;;;10.56;85.36133;963.3494;;;;
2019/10/27 05:12:58;;;;;;;6;4;;;;;;;10.5;85.52344;963.3638;;;;
2019/10/27 05:15:23;;;;;;;4.6;4;;;;;;;10.54;85.62109;963.3605;;;;
2019/10/27 05:17:48;;;;;;;7.1;4.1;;;;;;;10.76;84.25098;963.383;;;;
2019/10/27 05:20:13;;;;;;;6.6;4.2;;;;;;;10.83;84.25293;963.3906;;;;
2019/10/27 05:22:39;;;;;;;6.4;4.2;;;;;;;10.79;84.79492;963.4163;;;;
2019/10/27 05:25:04;;;;;;;6.8;3.9;;;;;;;10.85;84.75;963.4422;;;;
2019/10/27 05:27:29;;;;;;;6.1;3.8;;;;;;;10.97;84.55566;963.5055;;;;
2019/10/27 05:29:54;;;;;;;6.9;4.1;;;;;;;10.94;84.42188;963.481;;;;
2019/10/27 05:32:19;;;;;;;7.3;3.9;;;;;;;10.99;84.57031;963.5281;;;;
2019/10/27 05:34:44;;;;;;;6.1;3.9;;;;;;;11.03;84.33594;963.5133;;;;
2019/10/27 05:37:12;;;;;;;6.1;4;;;;;;;11.08;84.06934;963.5187;;;;
2019/10/27 05:39:34;;;;;;;6.6;3.9;;;;;;;11.02;84.61035;963.5099;;;;
2019/10/27 05:41:59;;;;;;;5.9;4;;;;;;;11.06;84.90723;963.5304;;;;
2019/10/27 05:44:24;;;;;;;6;4;;;;;;;11.05;85.11328;963.4968;;;;
2019/10/27 05:46:50;;;;;;;5.7;4.1;;;;;;;11.15;85.00391;963.5496;;;;
2019/10/27 05:49:15;;;;;;;5.8;4.5;;;;;;;11.07;86.07422;963.5953;;;;
2019/10/27 05:51:40;;;;;;;6;4.2;;;;;;;11.07;85.48535;963.6027;;;;
2019/10/27 05:54:05;;;;;;;6.8;4.1;;;;;;;11.12;85.43848;963.6418;;;;
2019/10/27 05:56:31;;;;;;;6.6;4;;;;;;;11.14;85.9834;963.6433;;;;
2019/10/27 05:58:56;;;;;;;7.7;4.4;;;;;;;11.15;86.46777;963.6785;;;;
2019/10/27 06:01:21;;;;;;;6.1;4.2;;;;;;;11.17;86.41504;963.7288;;;;
2019/10/27 06:03:47;;;;;;;6.9;3.8;;;;;;;11.21;85.60547;963.755;;;;
2019/10/27 06:06:12;;;;;;;5.1;4.1;;;;;;;11.16;86.35547;963.8222;;;;
2019/10/27 06:08:37;;;;;;;6;4.3;;;;;;;11.23;86.19727;963.7914;;;;
2019/10/27 06:11:02;;;;;;;7.3;4.6;;;;;;;11.25;86.63672;963.7712;;;;
2019/10/27 06:13:27;;;;;;;6.8;4.1;;;;;;;11.31;86.375;963.8513;;;;
2019/10/27 06:15:52;;;;;;;8;4.6;;;;;;;11.37;86.70996;963.8478;;;;
2019/10/27 06:18:18;;;;;;;6.2;4.2;;;;;;;11.39;86.72461;963.8709;;;;
2019/10/27 06:20:43;;;;;;;6.2;4.1;;;;;;;11.39;87.09375;963.9672;;;;
2019/10/27 06:23:08;;;;;;;5.7;4.3;;;;;;;11.47;86.54492;963.9553;;;;
2019/10/27 06:25:33;;;;;;;8.8;4.7;;;;;;;11.46;87.04883;963.9633;;;;
2019/10/27 06:27:58;;;;;;;8;4.3;;;;;;;11.6;84.57422;963.9458;;;;
2019/10/27 06:30:23;;;;;;;7.4;4.4;;;;;;;11.63;85.2832;963.9211;;;;
2019/10/27 06:32:48;;;;;;;8.1;4.3;;;;;;;11.62;85.75684;963.9398;;;;
2019/10/27 06:35:13;;;;;;;7.7;4.4;;;;;;;11.87;83.27637;963.9911;;;;
2019/10/27 06:37:38;;;;;;;6;4.4;;;;;;;11.91;83.88477;963.9889;;;;
2019/10/27 06:40:03;;;;;;;4.7;3.8;;;;;;;11.92;84.25586;964.0625;;;;
2019/10/27 06:42:28;;;;;;;6.5;4.4;;;;;;;11.96;84.85254;964.0714;;;;
2019/10/27 06:44:54;;;;;;;5.3;4.3;;;;;;;11.93;85.1123;964.1108;;;;
2019/10/27 06:47:19;;;;;;;7.3;4.4;;;;;;;11.98;84.91309;964.1291;;;;
2019/10/27 06:49:44;;;;;;;7.4;4.1;;;;;;;12.08;83.7793;964.1548;;;;
2019/10/27 06:52:09;;;;;;;6.3;4.3;;;;;;;12.21;84.10352;964.187;;;;
2019/10/27 06:54:34;;;;;;;6.1;4.2;;;;;;;12.23;84.36133;964.157;;;;
2019/10/27 06:56:59;;;;;;;6.5;3.9;;;;;;;12.4;82.66309;964.2062;;;;
2019/10/27 06:59:25;;;;;;;6.7;4;;;;;;;12.36;84.26074;964.1531;;;;
2019/10/27 07:01:59;;;;;;;5.4;3.9;;;;;;;12.37;84.80371;964.1844;;;;
2019/10/27 07:04:14;;;;;;;6.9;4.2;;;;;;;12.5;83.74316;964.1369;;;;
2019/10/27 07:06:39;;;;;;;6.2;4.1;;;;;;;12.48;84.30664;964.18;;;;
2019/10/27 07:09:04;;;;;;;6.3;4;;;;;;;12.53;84.24707;964.2167;;;;
2019/10/27 07:11:29;;;;;;;4.1;3.7;;;;;;;12.59;83.8877;964.2522;;;;
2019/10/27 07:13:55;;;;;;;6.6;4;;;;;;;12.67;82.64453;964.3283;;;;
2019/10/27 07:16:20;;;;;;;6.1;3.7;;;;;;;12.68;83.58301;964.2751;;;;
2019/10/27 07:18:45;;;;;;;7.8;4.3;;;;;;;12.61;85.19922;964.2863;;;;
2019/10/27 07:21:10;;;;;;;6;3.8;;;;;;;12.75;83.45605;964.2701;;;;
2019/10/27 07:23:35;;;;;;;6.1;4.1;;;;;;;12.9;81.78613;964.2662;;;;
2019/10/27 07:26:00;;;;;;;6.4;3.9;;;;;;;13.1;82.49512;964.3131;;;;
2019/10/27 07:28:25;;;;;;;6.6;4.1;;;;;;;13.33;79.98926;964.2516;;;;
2019/10/27 07:30:50;;;;;;;9.9;5.7;;;;;;;13.51;79.32715;964.3133;;;;
2019/10/27 07:33:15;;;;;;;6.5;4.8;;;;;;;13.58;79.23535;964.3175;;;;
2019/10/27 07:35:41;;;;;;;8.3;4.8;;;;;;;13.83;78.44629;964.3599;;;;
2019/10/27 07:38:06;;;;;;;9.8;5.7;;;;;;;14.01;78.00293;964.3755;;;;
2019/10/27 07:40:31;;;;;;;11.7;4.7;;;;;;;14.16;77.28711;964.3528;;;;
2019/10/27 07:42:56;;;;;;;7;4.1;;;;;;;14.36;76.29102;964.3619;;;;
2019/10/27 07:45:21;;;;;;;5.4;3.8;;;;;;;14.42;76.41602;964.3488;;;;
2019/10/27 07:47:46;;;;;;;8.1;3.9;;;;;;;14.46;76.19141;964.3516;;;;
2019/10/27 07:50:12;;;;;;;8.7;3.5;;;;;;;14.67;75.27637;964.3469;;;;
2019/10/27 07:52:37;;;;;;;5.9;3.8;;;;;;;14.83;74.66309;964.405;;;;
2019/10/27 07:55:02;;;;;;;6.7;3.6;;;;;;;14.94;74.35645;964.3553;;;;
2019/10/27 07:57:28;;;;;;;6.3;3.9;;;;;;;15.07;73.92578;964.2842;;;;
2019/10/27 07:59:53;;;;;;;6.7;4.3;;;;;;;15.06;74.6084;964.2818;;;;
2019/10/27 08:02:18;;;;;;;7.2;3.6;;;;;;;15.13;73.59863;964.3069;;;;
2019/10/27 08:04:43;;;;;;;6.2;3.9;;;;;;;15.26;73.3623;964.2615;;;;
2019/10/27 08:07:08;;;;;;;5.8;3.2;;;;;;;15.39;72.48926;964.2944;;;;
2019/10/27 08:09:33;;;;;;;4.4;3.4;;;;;;;15.34;72.88867;964.2651;;;;
2019/10/27 08:11:59;;;;;;;7.3;4.2;;;;;;;15.39;73.15234;964.2903;;;;
2019/10/27 08:14:25;;;;;;;8.4;3.1;;;;;;;15.5;72.08789;964.2264;;;;
2019/10/27 08:16:49;;;;;;;8.5;4.2;;;;;;;15.53;72.02441;964.2751;;;;
2019/10/27 08:19:14;;;;;;;6.5;3;;;;;;;15.67;71.27734;964.2676;;;;
2019/10/27 08:21:39;;;;;;;5.7;3.4;;;;;;;15.78;70.75977;964.2483;;;;
2019/10/27 08:24:04;;;;;;;6.2;3.2;;;;;;;16;69.7832;964.2388;;;;
2019/10/27 08:26:29;;;;;;;8.3;3.5;;;;;;;15.99;69.99023;964.2552;;;;
2019/10/27 08:28:55;;;;;;;5.2;3.3;;;;;;;16.06;69.88477;964.2736;;;;
2019/10/27 08:31:20;;;;;;;4.5;3;;;;;;;16.2;69.24316;964.2851;;;;
2019/10/27 08:33:45;;;;;;;5.2;3.6;;;;;;;16.16;69.34082;964.2562;;;;
2019/10/27 08:36:11;;;;;;;5.2;2.9;;;;;;;16.23;69.21094;964.2927;;;;
2019/10/27 08:38:35;;;;;;;8;3.2;;;;;;;16.31;68.80664;964.2642;;;;
2019/10/27 08:41:00;;;;;;;4.7;3.1;;;;;;;16.47;68.17773;964.324;;;;
2019/10/27 08:43:26;;;;;;;6.2;3;;;;;;;16.48;68.09668;964.3248;;;;
2019/10/27 08:45:51;;;;;;;5.3;3.1;;;;;;;16.55;67.74609;964.313;;;;
2019/10/27 08:48:16;;;;;;;6.8;3;;;;;;;16.62;67.46484;964.2036;;;;
2019/10/27 08:50:50;;;;;;;5;2.9;;;;;;;16.66;67.45996;964.2473;;;;
2019/10/27 08:53:16;;;;;;;6;3;;;;;;;16.58;67.86719;964.2859;;;;
2019/10/27 08:55:41;;;;;;;6;3.3;;;;;;;16.69;67.52246;964.3431;;;;
2019/10/27 08:58:06;;;;;;;5.3;2.9;;;;;;;16.76;67.24121;964.3245;;;;
2019/10/27 09:00:31;;;;;;;5.8;3.1;;;;;;;16.73;66.875;964.2673;;;;
2019/10/27 09:02:56;;;;;;;6.4;2.9;;;;;;;16.73;67.27246;964.2509;;;;
2019/10/27 09:05:21;;;;;;;9.3;3.6;;;;;;;16.85;66.87988;964.2614;;;;
2019/10/27 09:07:46;;;;;;;6.6;3.4;;;;;;;16.88;66.58301;964.2993;;;;
2019/10/27 09:10:11;;;;;;;5.8;3.3;;;;;;;16.97;66.58496;964.2452;;;;
2019/10/27 09:13:05;;;;;;;;;;;;;;;;;;;;;
2019/10/27 09:15:16;;;;;;;6.6;3.2;;;;;;;17.12;65.4502;964.2207;;;;
2019/10/27 09:20:01;;;;;;;4.8;3;;;;;;;17.26;65.21484;964.2595;;;;
2019/10/27 09:22:31;;;;;;;6.9;3.3;;;;;;;17.18;65.40137;964.3097;;;;
2019/10/27 09:24:56;;;;;;;7.3;3.4;;;;;;;17.13;65.7666;964.3177;;;;
2019/10/27 09:27:26;;;;;;;6.2;3.1;;;;;;;17.1;66.03223;964.372;;;;
2019/10/27 09:29:55;;;;;;;6;3.3;;;;;;;17.27;65.19238;964.3666;;;;
2019/10/27 09:32:18;;;;;;;5.1;3.4;;;;;;;17.33;66.28906;964.3065;;;;
2019/10/27 09:34:44;;;;;;;6;3.5;;;;;;;17.35;65.90625;964.3461;;;;
2019/10/27 09:37:28;;;;;;;7.4;4.5;;;;;;;17.39;66.0752;964.2883;;;;
2019/10/27 09:44:43;;;;;;;7;3.7;;;;;;;17.5;65.35547;964.1853;;;;
2019/10/27 09:55:16;;;;;;;9.3;5.1;;;;;;;17.55;65.07031;964.2619;;;;
2019/10/27 09:57:39;;;;;;;8.2;3.8;;;;;;;17.54;65.71191;964.2809;;;;
2019/10/27 10:00:13;;;;;;;9.4;4.4;;;;;;;17.71;64.56738;964.2047;;;;
2019/10/27 10:02:38;;;;;;;6.9;3.8;;;;;;;17.66;64.05762;964.2413;;;;
2019/10/27 10:05:44;;;;;;;7.1;4;;;;;;;17.72;63.82129;964.2881;;;;
2019/10/27 10:07:54;;;;;;;5.8;3.9;;;;;;;17.66;63.55371;964.2626;;;;
2019/10/27 10:11:29;;;;;;;6.7;4.1;;;;;;;17.58;64.13867;964.2223;;;;
2019/10/27 10:12:46;;;;;;;7.9;4.2;;;;;;;17.69;63.86328;964.322;;;;
2019/10/27 10:15:12;;;;;;;8.4;4.2;;;;;;;17.61;64.46973;964.2065;;;;
2019/10/27 10:17:37;;;;;;;7.8;4;;;;;;;17.57;64.53418;964.1696;;;;
2019/10/27 10:20:02;;;;;;;7;3.8;;;;;;;17.73;63.7627;964.1677;;;;
2019/10/27 10:22:27;;;;;;;6.2;3.9;;;;;;;17.76;63.31152;964.0826;;;;
2019/10/27 10:24:52;;;;;;;10.2;4.5;;;;;;;17.86;63.16113;964.1091;;;;
2019/10/27 10:27:17;;;;;;;7.9;4.3;;;;;;;18.01;62.58691;964.0815;;;;
2019/10/27 10:29:44;;;;;;;9.3;4.5;;;;;;;17.91;63.05176;964.0843;;;;
2019/10/27 10:32:09;;;;;;;8.6;4;;;;;;;18.04;62.79004;964.1155;;;;
2019/10/27 10:34:34;;;;;;;8;4;;;;;;;18.17;62.63184;964.0103;;;;
2019/10/27 10:36:59;;;;;;;8.8;4.1;;;;;;;18.2;62.48438;963.9986;;;;
2019/10/27 10:39:24;;;;;;;6.7;4;;;;;;;18.45;61.71191;964.0726;;;;
2019/10/27 10:41:49;;;;;;;7.8;3.9;;;;;;;18.48;61.15332;964.0427;;;;
2019/10/27 10:44:15;;;;;;;6.1;4.1;;;;;;;18.61;60.51465;963.978;;;;
2019/10/27 10:46:40;;;;;;;6.8;4.1;;;;;;;18.66;60.25195;963.9849;;;;
2019/10/27 10:49:05;;;;;;;6.2;4;;;;;;;18.64;59.99121;963.9704;;;;
2019/10/27 10:51:30;;;;;;;7.2;3.8;;;;;;;18.84;59.05664;964.0023;;;;
2019/10/27 10:53:55;;;;;;;6.8;3.6;;;;;;;18.92;58.39844;963.9102;;;;
2019/10/27 10:56:20;;;;;;;7.2;3.9;;;;;;;18.93;59.33789;963.9431;;;;
2019/10/27 10:58:46;;;;;;;7.4;3.8;;;;;;;19.07;58.35938;963.8794;;;;
2019/10/27 11:01:11;;;;;;;6.6;3.8;;;;;;;19.02;58.3877;963.8897;;;;
2019/10/27 11:03:37;;;;;;;9.1;3.8;;;;;;;19.2;57.93164;963.8602;;;;
2019/10/27 11:06:02;;;;;;;7.3;4.4;;;;;;;19.2;57.93164;963.8867;;;;
2019/10/27 11:08:27;;;;;;;9.5;4.8;;;;;;;19.21;57.99121;963.8214;;;;
2019/10/27 11:10:52;;;;;;;6.4;4.2;;;;;;;19.05;58.5918;963.8315;;;;
2019/10/27 11:13:18;;;;;;;8.3;4.5;;;;;;;19.02;58.89258;963.755;;;;
2019/10/27 11:15:43;;;;;;;6.8;4.1;;;;;;;19.03;58.81152;963.7319;;;;
2019/10/27 11:18:08;;;;;;;7.1;4.1;;;;;;;18.96;60.10449;963.6811;;;;
2019/10/27 11:20:33;;;;;;;10;4.3;;;;;;;19.11;59.18652;963.5625;;;;
2019/10/27 11:22:58;;;;;;;6.2;5;;;;;;;19.21;58.7998;963.5844;;;;
2019/10/27 11:25:23;;;;;;;6.9;5.4;;;;;;;19.11;59.31543;963.5651;;;;
2019/10/27 11:27:49;;;;;;;7.2;4.8;;;;;;;19.11;59.32715;963.5906;;;;
2019/10/27 11:30:14;;;;;;;7;4.5;;;;;;;19.07;59.29883;963.577;;;;
2019/10/27 11:32:39;;;;;;;5.9;3.9;;;;;;;19.2;59.59863;963.5419;;;;
2019/10/27 11:35:05;;;;;;;7.1;4.1;;;;;;;19.37;58.9043;963.5464;;;;
2019/10/27 11:37:30;;;;;;;9.4;4.4;;;;;;;19.4;58.93262;963.5304;;;;
2019/10/27 11:39:55;;;;;;;6.1;3.6;;;;;;;19.44;58.91309;963.4433;;;;
2019/10/27 11:42:20;;;;;;;6.1;3.9;;;;;;;19.57;58.88281;963.3984;;;;
2019/10/27 11:44:45;;;;;;;10.1;4.5;;;;;;;19.53;58.17383;963.4266;;;;
2019/10/27 11:47:10;;;;;;;8.4;4.1;;;;;;;19.5;58.32324;963.4012;;;;
2019/10/27 11:49:35;;;;;;;6.8;4.1;;;;;;;19.66;58.2959;963.3713;;;;
2019/10/27 11:52:00;;;;;;;7.3;4;;;;;;;19.75;59.02637;963.3447;;;;
2019/10/27 11:54:25;;;;;;;10;4.3;;;;;;;19.69;58.7002;963.2891;;;;
2019/10/27 11:56:50;;;;;;;8.6;4.6;;;;;;;19.73;58.54199;963.2769;;;;
2019/10/27 11:59:16;;;;;;;7.1;4.2;;;;;;;19.72;58;963.2167;;;;
2019/10/27 12:01:41;;;;;;;6.5;4.1;;;;;;;19.67;58.2627;963.2139;;;;
2019/10/27 12:04:06;;;;;;;7.4;4;;;;;;;19.81;58.14063;963.2183;;;;
2019/10/27 12:06:32;;;;;;;9;5.8;;;;;;;19.77;58.14551;963.1847;;;;
2019/10/27 12:08:57;;;;;;;6;4.1;;;;;;;19.86;57.72363;963.1993;;;;
2019/10/27 12:11:22;;;;;;;6.6;4.1;;;;;;;19.76;58.0752;963.2527;;;;
2019/10/27 12:13:48;;;;;;;7;4;;;;;;;19.99;56.6123;963.2211;;;;
2019/10/27 12:16:12;;;;;;;7.8;4.2;;;;;;;19.89;56.11621;963.1717;;;;
2019/10/27 12:18:38;;;;;;;9;4.6;;;;;;;19.75;57.02734;963.1635;;;;
2019/10/27 12:21:04;;;;;;;8.7;4.2;;;;;;;19.84;57.07422;963.1682;;;;
2019/10/27 12:23:29;;;;;;;7;4;;;;;;;19.82;57.29492;963.1329;;;;
2019/10/27 12:25:54;;;;;;;6.9;4.1;;;;;;;19.86;57.92383;963.1044;;;;
2019/10/27 12:28:19;;;;;;;11.8;8;;;;;;;19.69;57.35938;963.1286;;;;
2019/10/27 12:30:44;;;;;;;9.9;4.9;;;;;;;19.79;57.26758;963.1522;;;;
2019/10/27 12:33:09;;;;;;;9;4.9;;;;;;;19.69;57.23242;963.1459;;;;
2019/10/27 12:35:35;;;;;;;8.8;4.2;;;;;;;19.74;57.9082;963.0884;;;;
2019/10/27 12:38:00;;;;;;;9.2;4.7;;;;;;;19.69;57.60645;963.0989;;;;
2019/10/27 12:40:25;;;;;;;8.8;4.2;;;;;;;19.76;58.00488;963.0822;;;;
2019/10/27 12:43:01;;;;;;;6.2;4.1;;;;;;;19.75;57.65039;963.0683;;;;
2019/10/27 12:55:09;;;;;;;7.2;4.2;;;;;;;19.51;58.41797;963.016;;;;
2019/10/27 12:59:19;;;;;;;6.1;3.8;;;;;;;19.48;58.5791;962.9163;;;;
2019/10/27 13:01:44;;;;;;;7.1;4;;;;;;;19.57;59.02539;962.9194;;;;
2019/10/27 13:04:09;;;;;;;8.9;4.4;;;;;;;19.56;59.21094;962.9286;;;;
2019/10/27 13:06:34;;;;;;;11.2;4.1;;;;;;;19.5;58.73438;962.8977;;;;
2019/10/27 13:09:00;;;;;;;7.4;4.3;;;;;;;19.52;59.01855;962.858;;;;
2019/10/27 13:11:25;;;;;;;10.1;4.1;;;;;;;19.45;59.25488;962.858;;;;
2019/10/27 13:13:50;;;;;;;8.4;3.8;;;;;;;19.51;59.46387;962.8655;;;;
2019/10/27 13:16:15;;;;;;;6.5;3.7;;;;;;;19.43;59.81641;962.8491;;;;
2019/10/27 13:18:40;;;;;;;8.8;4.3;;;;;;;19.32;59.78906;962.8318;;;;
2019/10/27 13:21:06;;;;;;;9.5;4.1;;;;;;;19.35;59.7832;962.8672;;;;
2019/10/27 13:23:31;;;;;;;8.6;4;;;;;;;19.55;58.50586;962.8543;;;;
2019/10/27 13:25:56;;;;;;;8.9;4.1;;;;;;;19.3;59.24707;962.8455;;;;
2019/10/27 13:28:21;;;;;;;9.2;4.3;;;;;;;19.36;59.20898;962.8026;;;;
2019/10/27 13:30:46;;;;;;;8.2;4;;;;;;;19.17;59.71094;962.8283;;;;
2019/10/27 13:33:11;;;;;;;7.8;4.1;;;;;;;19.12;60.10449;962.8578;;;;
2019/10/27 13:35:37;;;;;;;9.4;4.2;;;;;;;19.04;60.86621;962.8205;;;;
2019/10/27 13:38:02;;;;;;;6.6;4;;;;;;;19.2;59.86719;962.8173;;;;
2019/10/27 13:40:27;;;;;;;8.1;4.2;;;;;;;19.16;60.15625;962.7888;;;;
2019/10/27 13:42:53;;;;;;;6.9;4.1;;;;;;;19.31;60.03613;962.7849;;;;
2019/10/27 13:45:18;;;;;;;6.6;4.2;;;;;;;19.4;59.74121;962.8014;;;;
2019/10/27 13:47:43;;;;;;;5.3;3.6;;;;;;;19.25;60.5791;962.826;;;;
2019/10/27 13:50:08;;;;;;;6.1;4;;;;;;;19.27;60.41797;962.7597;;;;
2019/10/27 13:52:34;;;;;;;6.9;4.2;;;;;;;19.43;59.69922;962.7556;;;;
2019/10/27 13:54:59;;;;;;;8.7;4.2;;;;;;;19.21;60.42188;962.7166;;;;
2019/10/27 13:57:24;;;;;;;6.4;4.2;;;;;;;19.22;60.95117;962.718;;;;
2019/10/27 13:59:49;;;;;;;5.9;3.7;;;;;;;19.35;60.26367;962.7322;;;;
2019/10/27 14:02:15;;;;;;;10.3;5.4;;;;;;;19.4;59.98926;962.6955;;;;
2019/10/27 14:04:40;;;;;;;8.7;4.6;;;;;;;19.49;59.3916;962.7226;;;;
2019/10/27 14:07:05;;;;;;;7;3.9;;;;;;;19.33;59.66113;962.7146;;;;
2019/10/27 14:09:30;;;;;;;9.3;4.3;;;;;;;19.28;58.96387;962.6685;;;;
2019/10/27 14:11:55;;;;;;;7.3;4.3;;;;;;;19.37;58.69238;962.6437;;;;
2019/10/27 14:14:20;;;;;;;8;4;;;;;;;19.33;58.75781;962.6691;;;;
2019/10/27 14:16:45;;;;;;;8.2;4;;;;;;;19.31;58.93066;962.632;;;;
2019/10/27 14:19:10;;;;;;;7.9;4.1;;;;;;;19.11;59.70215;962.6339;;;;
2019/10/27 14:21:36;;;;;;;9.2;4.2;;;;;;;19.07;59.70898;962.66;;;;
2019/10/27 14:24:01;;;;;;;7.7;4.1;;;;;;;19.08;59.52246;962.6216;;;;
2019/10/27 14:26:26;;;;;;;10.3;4.4;;;;;;;19.14;59.64746;962.5989;;;;
2019/10/27 14:28:52;;;;;;;10.2;4.7;;;;;;;19.12;59.72852;962.6264;;;;
2019/10/27 14:31:17;;;;;;;8.5;4.2;;;;;;;19.07;59.73145;962.5898;;;;
2019/10/27 14:33:42;;;;;;;7.8;4.1;;;;;;;19.02;59.70313;962.5941;;;;
2019/10/27 14:36:08;;;;;;;7.8;4.7;;;;;;;19.04;59.49316;962.623;;;;
2019/10/27 14:38:32;;;;;;;8.6;4.4;;;;;;;18.97;59.56738;962.5873;;;;
2019/10/27 14:40:58;;;;;;;8.3;4.5;;;;;;;19.07;59.36816;962.6328;;;;
2019/10/27 14:43:23;;;;;;;7.2;4.5;;;;;;;19.07;59.56836;962.655;;;;
2019/10/27 14:45:48;;;;;;;7.7;4.3;;;;;;;18.97;61.20996;962.665;;;;
2019/10/27 14:48:13;;;;;;;7.8;4.3;;;;;;;18.98;60.00195;962.673;;;;
2019/10/27 14:50:39;;;;;;;8.6;4.3;;;;;;;18.99;60.58887;962.6242;;;;
2019/10/27 14:53:04;;;;;;;8.6;4.3;;;;;;;19;60.63867;962.6525;;;;
2019/10/27 14:55:29;;;;;;;8.2;4.3;;;;;;;18.85;60.91113;962.6158;;;;
2019/10/27 14:57:55;;;;;;;7.1;4.4;;;;;;;18.77;61.15723;962.5824;;;;
2019/10/27 15:00:20;;;;;;;7.9;4.8;;;;;;;18.78;60.91211;962.6021;;;;
2019/10/27 15:02:45;;;;;;;8.8;4.8;;;;;;;18.79;61.03223;962.5873;;;;
2019/10/27 15:05:10;;;;;;;7.6;4.3;;;;;;;18.7;61.20605;962.5424;;;;
2019/10/27 15:07:35;;;;;;;8.2;4.6;;;;;;;18.63;61.49023;962.5609;;;;
2019/10/27 15:10:00;;;;;;;10;4.7;;;;;;;18.75;61.36523;962.5652;;;;
2019/10/27 15:12:26;;;;;;;9.4;4.9;;;;;;;18.56;61.84375;962.6077;;;;
2019/10/27 15:14:51;;;;;;;8.4;4.6;;;;;;;18.66;62.00977;962.5779;;;;
2019/10/27 15:17:16;;;;;;;7.6;4.5;;;;;;;18.59;61.97656;962.5992;;;;
2019/10/27 15:19:42;;;;;;;8.3;4.6;;;;;;;18.6;62.24902;962.6394;;;;
2019/10/27 15:22:07;;;;;;;8.5;4.8;;;;;;;18.47;62.42871;962.5984;;;;
2019/10/27 15:24:32;;;;;;;8.2;4.3;;;;;;;18.47;62.60645;962.6116;;;;
2019/10/27 15:26:57;;;;;;;7.2;4.4;;;;;;;18.34;63.71191;962.634;;;;
2019/10/27 15:29:22;;;;;;;7.3;4.4;;;;;;;18.23;65.26563;962.6065;;;;
2019/10/27 15:31:47;;;;;;;6.8;4.3;;;;;;;18.09;67.17676;962.6213;;;;
2019/10/27 15:34:13;;;;;;;9.4;4.4;;;;;;;18.12;64.46387;962.6302;;;;
2019/10/27 15:36:38;;;;;;;6.4;4.1;;;;;;;18.09;65.25586;962.622;;;;
2019/10/27 15:39:03;;;;;;;7;4.2;;;;;;;18;65.82813;962.611;;;;
2019/10/27 15:41:29;;;;;;;7.1;3.9;;;;;;;17.91;66.16504;962.6667;;;;
2019/10/27 15:43:54;;;;;;;7.3;4.5;;;;;;;17.86;66.42676;962.6506;;;;
2019/10/27 15:46:19;;;;;;;10.5;5.3;;;;;;;17.84;65.81445;962.6581;;;;
2019/10/27 15:48:44;;;;;;;8.4;4.3;;;;;;;17.84;66.00195;962.6655;;;;
2019/10/27 15:51:10;;;;;;;9.8;4.9;;;;;;;17.8;66.33691;962.6855;;;;
2019/10/27 15:53:35;;;;;;;5.9;4.6;;;;;;;17.77;66.64746;962.7299;;;;
2019/10/27 15:56:00;;;;;;;7.5;4.7;;;;;;;17.67;69.10059;962.7134;;;;
2019/10/27 15:58:25;;;;;;;7.5;5.1;;;;;;;17.65;67.36719;962.7072;;;;
2019/10/27 16:00:50;;;;;;;8;4.5;;;;;;;17.56;69.50488;962.733;;;;